Time;durP1;ratioP1;P1;durP2;ratioP2;P2;SDS_P1;SDS_P2;PMS_P1;PMS_P2;Temp;Humidity;BMP_temperature;BMP_pressure;BME280_temperature;BME280_humidity;BME280_pressure;Samples;Min_cycle;Max_cycle;Signal;HPM_P1;HPM_P2
2022/01/21 00:01:45;;;;;;;20.52;1.75;;;;;;;3.69;79.12;103397.88;5054951;28;20035;-43
2022/01/21 00:04:10;;;;;;;22.98;1.65;;;;;;;3.64;79.63;103399.91;5038250;28;20139;-42
2022/01/21 00:06:36;;;;;;;19.65;1.85;;;;;;;3.61;79.78;103404.53;5035779;28;20064;-44
2022/01/21 00:09:02;;;;;;;26.90;2.30;;;;;;;3.62;79.46;103398.25;5034061;28;20075;-43
2022/01/21 00:11:30;;;;;;;15.40;1.27;;;;;;;3.58;78.95;103391.31;5034676;28;20026;-42
2022/01/21 00:13:56;;;;;;;14.68;1.35;;;;;;;3.61;79.59;103394.72;5043504;28;20037;-42
2022/01/21 00:16:24;;;;;;;28.92;2.60;;;;;;;3.65;79.69;103401.63;5043103;28;20102;-42
2022/01/21 00:18:59;;;;;;;26.50;1.73;;;;;;;3.61;79.88;103400.06;5053834;28;20147;-42
2022/01/21 00:32:23;;;;;;;29.23;2.63;;;;;;;3.55;80.67;103405.66;5034419;28;20044;-42
2022/01/21 00:34:48;;;;;;;31.63;2.58;;;;;;;3.58;80.92;103410.84;5034463;28;20022;-42
2022/01/21 00:37:14;;;;;;;25.90;1.90;;;;;;;3.69;80.49;103405.88;5043792;28;20037;-41
2022/01/21 00:39:39;;;;;;;16.13;1.67;;;;;;;3.80;80.96;103404.50;5042802;28;20033;-42
2022/01/21 00:44:36;;;;;;;12.93;2.00;;;;;;;4.00;80.86;103409.69;5054342;28;20075;-43
2022/01/21 00:47:02;;;;;;;24.90;2.35;;;;;;;4.02;81.66;103414.94;5048115;28;20060;-42
2022/01/21 00:49:27;;;;;;;22.05;1.90;;;;;;;4.03;81.46;103414.88;5046327;28;20439;-43
2022/01/21 00:51:52;;;;;;;25.42;2.22;;;;;;;4.07;81.39;103416.44;5035562;28;20043;-42
2022/01/21 00:54:18;;;;;;;16.48;1.70;;;;;;;4.10;81.55;103418.94;5034377;28;20065;-44
2022/01/21 00:56:43;;;;;;;28.98;2.17;;;;;;;4.00;82.18;103417.66;5052743;28;20052;-43
2022/01/21 00:59:09;;;;;;;21.60;2.05;;;;;;;3.91;82.52;103419.00;5046984;28;20497;-43
2022/01/21 01:01:34;;;;;;;28.58;2.38;;;;;;;3.91;83.14;103420.81;5037473;28;20495;-42
2022/01/21 01:04:00;;;;;;;12.85;1.45;;;;;;;3.95;82.72;103409.06;5052110;28;20078;-42
2022/01/21 01:06:25;;;;;;;20.10;1.48;;;;;;;3.98;82.08;103416.91;5053101;28;20029;-42
2022/01/21 01:08:53;;;;;;;20.58;1.65;;;;;;;4.04;81.81;103424.59;5050777;28;20156;-42
2022/01/21 01:22:19;;;;;;;30.98;2.00;;;;;;;3.90;82.07;103419.94;5050938;28;20631;-42
2022/01/21 01:29:57;;;;;;;18.92;1.95;;;;;;;3.72;82.30;103412.84;5041071;28;20060;-42
2022/01/21 01:32:24;;;;;;;19.25;1.60;;;;;;;3.67;83.16;103409.53;5033327;28;20025;-42
2022/01/21 01:34:50;;;;;;;26.85;2.03;;;;;;;3.73;82.10;103404.75;5036525;28;20389;-43
2022/01/21 01:37:32;;;;;;;35.45;3.67;;;;;;;3.67;82.32;103406.88;5039325;28;20495;-42
2022/01/21 01:40:43;;;;;;;14.88;1.98;;;;;;;3.61;83.05;103415.16;5051687;28;20032;-43
2022/01/21 01:50:52;;;;;;;14.45;1.40;;;;;;;3.57;84.17;103405.59;5037045;28;20048;-42
2022/01/21 01:53:22;;;;;;;30.70;1.60;;;;;;;3.62;83.87;103412.41;5033135;28;20084;-42
2022/01/21 01:55:47;;;;;;;11.90;1.10;;;;;;;3.67;83.71;103405.06;5032904;28;20032;-43
2022/01/21 01:58:14;;;;;;;19.27;1.55;;;;;;;3.69;83.31;103397.88;5042223;28;20025;-42
2022/01/21 02:00:40;;;;;;;17.33;1.70;;;;;;;3.71;83.02;103404.00;5048756;28;20040;-43
2022/01/21 02:03:11;;;;;;;12.02;1.58;;;;;;;3.62;82.70;103404.44;5053175;28;20067;-41
2022/01/21 02:05:37;;;;;;;17.02;1.77;;;;;;;3.58;83.50;103410.84;5045015;28;20038;-41
2022/01/21 02:08:02;;;;;;;22.02;1.45;;;;;;;3.52;83.87;103419.97;5044583;28;20036;-42
2022/01/21 02:10:28;;;;;;;14.65;1.83;;;;;;;3.47;83.78;103413.13;5050974;28;20029;-42
2022/01/21 02:13:04;;;;;;;26.98;1.70;;;;;;;3.44;84.24;103405.31;5051820;28;20060;-43
2022/01/21 02:15:30;;;;;;;19.50;1.50;;;;;;;3.37;84.26;103407.41;5052711;28;20091;-42
2022/01/21 02:23:26;;;;;;;21.90;1.75;;;;;;;3.31;84.63;103402.34;5051487;28;20135;-42
2022/01/21 02:25:51;;;;;;;15.80;1.67;;;;;;;3.27;85.68;103401.63;5052497;28;20033;-42
2022/01/21 02:28:19;;;;;;;19.33;2.05;;;;;;;3.27;86.13;103406.97;5051678;28;20021;-42
2022/01/21 02:30:58;;;;;;;19.85;1.55;;;;;;;3.42;86.33;103413.38;5035311;28;20030;-42
2022/01/21 02:33:25;;;;;;;22.50;1.73;;;;;;;3.69;85.72;103413.84;5031988;28;20429;-42
2022/01/21 02:35:51;;;;;;;16.98;1.00;;;;;;;3.72;85.58;103408.38;5032198;28;20104;-43
2022/01/21 02:38:16;;;;;;;17.27;1.10;;;;;;;3.68;86.73;103414.78;5035891;28;20057;-41
2022/01/21 02:40:45;;;;;;;18.10;1.38;;;;;;;3.66;86.72;103418.44;5046427;28;20029;-42
2022/01/21 02:43:11;;;;;;;20.77;1.38;;;;;;;3.57;87.50;103426.88;5050327;28;20029;-41
2022/01/21 02:45:39;;;;;;;17.98;1.88;;;;;;;3.62;87.53;103431.06;5051974;28;20028;-41
2022/01/21 02:48:07;;;;;;;16.80;1.55;;;;;;;3.52;88.73;103417.31;5051091;28;20055;-42
2022/01/21 02:50:33;;;;;;;14.38;1.48;;;;;;;3.51;89.10;103420.91;5037099;28;20025;-42
2022/01/21 02:53:24;;;;;;;13.35;1.10;;;;;;;3.49;89.26;103404.16;5035114;28;20041;-41
2022/01/21 02:55:49;;;;;;;12.00;1.20;;;;;;;3.50;88.61;103402.34;5032378;28;20026;-41
2022/01/21 02:58:14;;;;;;;11.13;1.05;;;;;;;3.41;88.46;103410.78;5037411;28;20500;-41
2022/01/21 03:00:40;;;;;;;14.40;1.02;;;;;;;3.36;87.95;103410.13;5032879;28;20485;-41
2022/01/21 03:03:05;;;;;;;9.50;0.90;;;;;;;3.24;87.60;103407.13;5041456;28;20082;-41
2022/01/21 03:05:34;;;;;;;12.43;0.98;;;;;;;3.26;87.40;103393.72;5051986;28;20096;-41
2022/01/21 03:07:59;;;;;;;14.45;1.15;;;;;;;3.19;86.79;103393.16;5047668;28;20505;-41
2022/01/21 03:10:26;;;;;;;13.02;1.27;;;;;;;3.04;87.61;103383.22;5045956;28;20041;-43
2022/01/21 03:12:51;;;;;;;15.93;1.15;;;;;;;2.97;88.46;103387.06;5051781;28;20029;-42
2022/01/21 03:15:17;;;;;;;17.92;1.38;;;;;;;2.89;88.06;103391.88;5051804;28;20032;-42
2022/01/21 03:17:42;;;;;;;21.83;1.50;;;;;;;2.97;88.52;103397.72;5040152;28;20227;-42
2022/01/21 03:20:08;;;;;;;19.48;0.80;;;;;;;2.91;87.88;103404.19;5038227;28;20067;-42
2022/01/21 03:22:35;;;;;;;11.45;1.05;;;;;;;2.81;88.95;103403.72;5030348;28;20043;-41
2022/01/21 03:25:00;;;;;;;19.60;1.20;;;;;;;2.78;89.91;103403.88;5035161;28;20355;-43
2022/01/21 03:27:26;;;;;;;24.70;2.03;;;;;;;2.81;89.66;103409.03;5039935;28;20489;-43
2022/01/21 03:29:51;;;;;;;20.17;1.77;;;;;;;2.85;90.04;103408.00;5043370;28;20034;-43
2022/01/21 03:32:16;;;;;;;26.33;1.63;;;;;;;2.86;90.43;103406.19;5048859;28;20059;-43
2022/01/21 03:34:42;;;;;;;20.90;1.92;;;;;;;2.92;90.95;103410.34;5053973;28;20021;-42
2022/01/21 03:37:07;;;;;;;32.08;1.80;;;;;;;2.98;91.38;103405.63;5055549;28;20036;-43
2022/01/21 03:39:32;;;;;;;40.38;1.90;;;;;;;3.02;91.72;103393.06;5051881;28;20028;-43
2022/01/21 03:41:58;;;;;;;21.25;1.77;;;;;;;3.06;91.95;103392.00;5039138;28;20037;-42
2022/01/21 03:44:23;;;;;;;26.92;2.25;;;;;;;3.15;91.55;103404.84;5035395;28;20109;-43
2022/01/21 03:46:48;;;;;;;25.02;1.65;;;;;;;3.23;90.15;103393.84;5035747;28;20071;-44
2022/01/21 03:49:14;;;;;;;17.83;1.95;;;;;;;3.27;90.54;103404.31;5037889;28;20489;-43
2022/01/21 03:51:39;;;;;;;24.58;1.98;;;;;;;3.39;89.40;103408.16;5048516;28;20045;-43
2022/01/21 03:54:04;;;;;;;24.38;2.63;;;;;;;3.55;88.39;103418.97;5036410;28;20033;-43
2022/01/21 03:56:30;;;;;;;25.02;1.40;;;;;;;3.60;87.34;103414.28;5038871;28;20485;-43
2022/01/21 03:58:55;;;;;;;21.88;1.73;;;;;;;3.60;87.43;103416.94;5035155;28;20116;-43
2022/01/21 04:01:23;;;;;;;21.63;1.98;;;;;;;3.62;88.31;103423.06;5052903;28;20033;-43
2022/01/21 04:03:48;;;;;;;35.58;2.00;;;;;;;3.69;87.91;103424.50;5035426;28;20027;-43
2022/01/21 04:06:14;;;;;;;23.52;1.83;;;;;;;3.71;87.23;103427.97;5035076;28;20091;-43
2022/01/21 04:08:39;;;;;;;15.57;1.70;;;;;;;3.78;86.79;103419.66;5034806;28;20021;-42
2022/01/21 04:11:04;;;;;;;18.58;1.58;;;;;;;3.77;86.73;103420.63;5034882;28;20059;-42
2022/01/21 04:13:30;;;;;;;26.55;2.17;;;;;;;3.80;86.89;103421.31;5038096;28;20112;-42
2022/01/21 04:15:57;;;;;;;27.38;2.85;;;;;;;3.85;87.19;103426.44;5043957;28;20500;-42
2022/01/21 04:18:23;;;;;;;19.95;1.85;;;;;;;4.03;86.78;103428.19;5054718;28;20021;-42
2022/01/21 04:20:49;;;;;;;30.75;2.33;;;;;;;4.02;87.49;103434.44;5049316;28;20035;-42
2022/01/21 04:23:16;;;;;;;19.33;1.40;;;;;;;3.99;87.60;103429.28;5054677;28;20055;-47
2022/01/21 04:25:42;;;;;;;25.48;2.42;;;;;;;3.90;87.44;103422.59;5036810;28;20021;-47
2022/01/21 04:28:08;;;;;;;23.02;1.45;;;;;;;3.77;87.83;103421.47;5047582;28;20057;-46
2022/01/21 04:30:33;;;;;;;20.63;1.73;;;;;;;3.66;89.42;103424.66;5051336;28;20037;-44
2022/01/21 04:32:58;;;;;;;21.38;1.52;;;;;;;3.59;89.75;103436.53;5054377;28;20121;-46
2022/01/21 04:35:24;;;;;;;24.55;2.20;;;;;;;3.51;89.49;103431.56;5036941;28;20041;-43
2022/01/21 04:37:55;;;;;;;26.75;1.48;;;;;;;3.41;90.21;103427.59;5042980;28;20481;-44
2022/01/21 04:40:24;;;;;;;21.98;1.77;;;;;;;3.32;90.54;103425.38;5033451;28;20429;-42
2022/01/21 04:48:17;;;;;;;16.25;1.30;;;;;;;3.26;89.77;103421.19;5034319;28;20048;-42
2022/01/21 04:50:54;;;;;;;24.10;1.77;;;;;;;3.21;89.27;103417.91;5033962;28;20033;-42
2022/01/21 04:53:20;;;;;;;25.23;2.53;;;;;;;3.21;89.34;103427.66;5034108;28;20052;-42
2022/01/21 04:55:45;;;;;;;19.45;1.67;;;;;;;3.12;90.15;103428.94;5044542;28;20036;-42
2022/01/21 04:58:11;;;;;;;20.20;1.67;;;;;;;3.10;90.38;103430.81;5054042;28;20025;-42
2022/01/21 05:00:37;;;;;;;25.92;1.80;;;;;;;3.13;89.48;103429.81;5041248;28;20079;-43
2022/01/21 05:03:02;;;;;;;16.00;1.73;;;;;;;3.12;88.78;103428.94;5034057;28;20435;-43
2022/01/21 05:05:28;;;;;;;21.73;2.28;;;;;;;3.10;89.49;103428.16;5033918;28;20041;-42
2022/01/21 05:07:54;;;;;;;16.45;1.55;;;;;;;3.10;90.17;103430.81;5032518;28;20037;-43
2022/01/21 05:10:20;;;;;;;42.92;2.28;;;;;;;3.13;89.67;103430.66;5033848;28;20067;-43
2022/01/21 05:12:46;;;;;;;19.88;2.03;;;;;;;3.26;89.81;103426.50;5033539;28;20025;-43
2022/01/21 05:15:20;;;;;;;23.63;2.50;;;;;;;3.26;89.10;103421.19;5038057;28;20479;-43
2022/01/21 05:17:48;;;;;;;20.95;1.80;;;;;;;3.30;89.16;103419.25;5064408;28;20042;-43
2022/01/21 05:20:14;;;;;;;24.75;2.30;;;;;;;3.37;89.37;103414.50;5040429;28;20068;-43
2022/01/21 05:22:39;;;;;;;29.83;2.10;;;;;;;3.45;89.06;103417.66;5034167;28;20172;-43
2022/01/21 05:25:05;;;;;;;26.00;1.75;;;;;;;3.50;89.80;103418.31;5034082;28;20446;-43
2022/01/21 05:27:31;;;;;;;30.80;2.35;;;;;;;3.59;89.38;103423.22;5034018;28;20043;-43
2022/01/21 05:29:58;;;;;;;17.85;1.80;;;;;;;3.66;90.18;103424.66;5044852;28;20021;-43
2022/01/21 05:32:23;;;;;;;25.67;2.35;;;;;;;3.74;89.57;103421.63;5039830;28;20030;-43
2022/01/21 05:34:48;;;;;;;28.15;1.95;;;;;;;3.75;89.76;103418.03;5033880;28;20561;-42
2022/01/21 05:37:14;;;;;;;14.45;2.05;;;;;;;3.78;90.21;103411.69;5035049;28;20104;-43
2022/01/21 05:39:39;;;;;;;20.20;1.55;;;;;;;3.76;89.93;103410.88;5045771;28;20040;-42
2022/01/21 05:42:06;;;;;;;31.15;3.15;;;;;;;3.72;90.33;103402.19;5034101;28;20041;-42
2022/01/21 05:46:59;;;;;;;28.13;3.22;;;;;;;3.62;89.92;103401.75;5050639;28;20091;-43
2022/01/21 05:49:26;;;;;;;19.75;1.75;;;;;;;3.62;89.40;103398.25;5047167;28;20468;-43
2022/01/21 05:51:53;;;;;;;22.83;1.90;;;;;;;3.64;88.89;103399.91;5053325;28;20053;-42
2022/01/21 05:54:24;;;;;;;32.88;2.53;;;;;;;3.52;89.41;103400.47;5048742;28;20034;-42
2022/01/21 05:56:50;;;;;;;31.20;2.47;;;;;;;3.44;88.88;103405.31;5033041;28;20373;-42
2022/01/21 05:59:16;;;;;;;28.40;2.70;;;;;;;3.38;89.50;103392.28;5045170;28;20100;-43
2022/01/21 06:01:41;;;;;;;29.92;2.45;;;;;;;3.35;90.15;103408.41;5040965;28;20030;-43
2022/01/21 06:04:07;;;;;;;44.58;2.80;;;;;;;3.27;90.31;103406.97;5032762;28;20032;-42
2022/01/21 06:06:32;;;;;;;39.92;4.18;;;;;;;3.25;90.94;103418.63;5033117;28;20026;-42
2022/01/21 06:08:58;;;;;;;26.05;2.45;;;;;;;3.36;90.71;103420.78;5033394;28;20060;-42
2022/01/21 06:11:23;;;;;;;36.08;3.75;;;;;;;3.42;90.52;103426.69;5033589;28;20048;-42
2022/01/21 06:13:50;;;;;;;46.13;3.90;;;;;;;3.56;90.45;103426.03;5037637;28;20036;-42
2022/01/21 06:16:17;;;;;;;32.10;2.75;;;;;;;3.63;90.44;103424.78;5039826;28;20025;-42
2022/01/21 06:18:42;;;;;;;33.47;3.38;;;;;;;3.80;89.51;103428.47;5047707;28;20427;-42
2022/01/21 06:21:08;;;;;;;34.20;2.95;;;;;;;3.89;89.22;103422.66;5035743;28;20022;-42
2022/01/21 06:23:33;;;;;;;31.13;3.58;;;;;;;3.91;88.49;103423.47;5041419;28;20496;-42
2022/01/21 06:25:58;;;;;;;28.30;2.70;;;;;;;3.99;87.46;103431.09;5043745;28;20029;-42
2022/01/21 06:28:24;;;;;;;25.08;2.30;;;;;;;4.09;86.74;103422.56;5043435;28;20095;-42
2022/01/21 06:30:50;;;;;;;33.38;2.53;;;;;;;4.20;85.57;103432.69;5039864;28;20016;-42
2022/01/21 06:33:15;;;;;;;34.22;4.13;;;;;;;4.30;83.92;103435.75;5034798;28;20029;-42
2022/01/21 06:35:41;;;;;;;22.50;2.17;;;;;;;4.38;82.49;103444.22;5044043;28;20085;-42
2022/01/21 06:38:06;;;;;;;27.25;2.97;;;;;;;4.44;83.00;103453.72;5046782;28;20036;-43
2022/01/21 06:40:32;;;;;;;38.22;3.55;;;;;;;4.50;82.30;103438.28;5040423;28;20037;-42
2022/01/21 06:43:02;;;;;;;32.67;2.13;;;;;;;4.55;82.19;103451.34;5044584;28;20116;-43
2022/01/21 06:46:55;;;;;;;24.58;2.97;;;;;;;4.58;82.19;103453.88;5107290;27;20756;-43
2022/01/21 06:49:20;;;;;;;27.50;2.38;;;;;;;4.54;82.13;103450.50;5108523;28;20032;-42
2022/01/21 06:51:45;;;;;;;21.15;2.55;;;;;;;4.48;81.66;103450.81;5108282;28;20031;-43
2022/01/21 06:54:11;;;;;;;24.58;2.22;;;;;;;4.49;81.63;103443.69;5109733;28;20102;-43
2022/01/21 06:56:36;;;;;;;36.53;3.17;;;;;;;4.43;82.54;103455.53;5109413;28;20038;-43
2022/01/21 06:59:03;;;;;;;43.05;3.28;;;;;;;4.37;82.94;103438.03;5107336;28;20024;-43
2022/01/21 07:01:28;;;;;;;23.13;2.40;;;;;;;4.37;82.65;103443.38;5104382;28;20039;-43
2022/01/21 07:03:54;;;;;;;38.60;2.95;;;;;;;4.37;82.36;103434.47;5107665;28;20024;-42
2022/01/21 07:06:20;;;;;;;25.70;1.88;;;;;;;4.31;82.65;103441.00;5092882;28;20104;-42
2022/01/21 07:08:45;;;;;;;41.42;2.55;;;;;;;4.30;83.08;103446.41;5092113;28;20024;-42
2022/01/21 07:11:10;;;;;;;26.08;2.55;;;;;;;4.27;83.63;103446.59;5101344;28;20482;-43
2022/01/21 07:13:38;;;;;;;33.47;3.50;;;;;;;4.32;83.30;103450.75;5108689;28;20032;-42
2022/01/21 07:16:04;;;;;;;24.52;5.00;;;;;;;4.34;83.11;103455.97;5099500;28;20040;-42
2022/01/21 07:18:29;;;;;;;31.40;2.50;;;;;;;4.30;83.79;103449.94;5108601;28;20068;-42
2022/01/21 07:20:55;;;;;;;21.67;3.72;;;;;;;4.23;84.09;103453.00;5096988;28;20032;-42
2022/01/21 07:23:20;;;;;;;35.80;3.65;;;;;;;4.17;84.18;103452.34;5098684;28;20036;-44
2022/01/21 07:25:46;;;;;;;37.60;2.35;;;;;;;4.15;83.33;103454.22;5103773;28;20556;-42
2022/01/21 07:28:11;;;;;;;34.28;3.47;;;;;;;4.17;83.77;103464.81;5107342;28;20418;-42
2022/01/21 07:30:36;;;;;;;37.38;4.22;;;;;;;4.12;84.56;103465.03;5104528;28;20471;-42
2022/01/21 07:33:02;;;;;;;32.47;2.78;;;;;;;4.10;84.79;103466.06;5100594;28;20533;-43
2022/01/21 07:35:27;;;;;;;26.63;3.00;;;;;;;4.14;84.71;103483.63;5100581;28;20031;-42
2022/01/21 07:37:53;;;;;;;44.75;2.80;;;;;;;4.18;85.39;103475.38;5106311;28;20110;-42
2022/01/21 07:40:18;;;;;;;24.58;2.58;;;;;;;4.27;85.34;103471.44;5108146;28;20424;-42
2022/01/21 07:42:43;;;;;;;32.45;3.20;;;;;;;4.39;84.71;103477.94;5108236;28;20510;-43
2022/01/21 07:45:09;;;;;;;60.28;10.80;;;;;;;4.57;83.39;103477.00;5104609;28;20055;-42
2022/01/21 07:47:34;;;;;;;36.90;3.40;;;;;;;4.68;82.12;103470.28;5104966;28;20050;-43
2022/01/21 07:50:00;;;;;;;33.30;2.85;;;;;;;4.74;82.92;103467.28;5104802;28;20020;-41
2022/01/21 07:52:25;;;;;;;25.95;2.50;;;;;;;4.77;82.18;103457.31;5107102;28;20034;-42
2022/01/21 07:54:50;;;;;;;20.50;2.47;;;;;;;4.84;81.71;103465.84;5099497;28;20611;-42
2022/01/21 07:57:16;;;;;;;31.50;3.05;;;;;;;4.83;81.64;103469.47;5099323;28;20024;-41
2022/01/21 07:59:41;;;;;;;30.95;2.42;;;;;;;4.87;81.55;103460.38;5092964;28;20787;-42
2022/01/21 08:02:07;;;;;;;23.13;2.10;;;;;;;4.91;81.96;103467.28;5094031;28;20028;-43
2022/01/21 08:04:32;;;;;;;28.55;2.38;;;;;;;5.00;80.94;103466.81;5090561;28;20093;-43
2022/01/21 08:06:57;;;;;;;18.08;1.92;;;;;;;5.11;80.98;103460.00;5092460;28;20153;-43
2022/01/21 08:09:25;;;;;;;32.63;2.33;;;;;;;5.17;81.17;103459.69;5092311;28;20039;-42
2022/01/21 08:11:51;;;;;;;51.03;4.30;;;;;;;5.20;80.77;103464.88;5092804;28;20020;-42
2022/01/21 08:14:16;;;;;;;21.83;2.50;;;;;;;5.27;81.03;103466.28;5092565;28;20020;-42
2022/01/21 08:16:42;;;;;;;15.00;3.15;;;;;;;5.29;81.56;103467.03;5093681;28;20368;-42
2022/01/21 08:19:07;;;;;;;20.25;2.03;;;;;;;5.50;80.66;103465.00;5086501;28;20052;-42
2022/01/21 08:21:32;;;;;;;26.80;2.63;;;;;;;5.66;79.92;103468.56;5093937;28;20123;-42
2022/01/21 08:23:58;;;;;;;22.77;2.85;;;;;;;5.73;80.41;103479.75;5087987;28;20031;-42
2022/01/21 08:26:25;;;;;;;33.35;2.97;;;;;;;5.78;80.69;103487.53;5093713;28;20486;-42
2022/01/21 08:28:52;;;;;;;27.42;2.45;;;;;;;5.81;80.06;103490.88;5086143;28;20039;-42
2022/01/21 08:31:18;;;;;;;37.63;5.00;;;;;;;5.97;80.03;103490.06;5092216;28;20127;-42
2022/01/21 08:33:43;;;;;;;31.77;4.43;;;;;;;6.10;79.40;103485.72;5093238;28;20111;-43
2022/01/21 08:36:10;;;;;;;26.80;2.45;;;;;;;6.18;78.44;103491.50;5093768;28;20028;-42
2022/01/21 08:38:35;;;;;;;27.67;2.92;;;;;;;6.26;78.85;103483.91;5092975;28;20043;-42
2022/01/21 08:41:01;;;;;;;16.95;3.70;;;;;;;6.36;77.86;103479.75;5093556;28;20428;-43
2022/01/21 08:43:26;;;;;;;25.30;3.05;;;;;;;6.55;78.88;103478.66;5092226;28;20050;-42
2022/01/21 08:45:51;;;;;;;31.30;4.47;;;;;;;6.90;78.07;103473.00;5092775;28;20140;-43
2022/01/21 08:48:17;;;;;;;33.83;3.35;;;;;;;7.46;74.91;103474.84;5088356;28;20115;-42
2022/01/21 08:50:42;;;;;;;35.97;3.70;;;;;;;7.64;74.63;103470.16;5092697;28;20073;-42
2022/01/21 08:53:35;;;;;;;27.45;2.75;;;;;;;7.50;75.63;103471.97;5093911;28;20039;-43
2022/01/21 08:55:53;;;;;;;40.53;2.65;;;;;;;7.23;76.05;103476.28;5092932;28;20035;-42
2022/01/21 08:58:18;;;;;;;21.35;2.78;;;;;;;7.28;75.31;103475.16;5090319;28;20062;-43
2022/01/21 09:00:43;;;;;;;42.35;3.70;;;;;;;7.16;75.79;103479.44;5069489;28;20472;-43
2022/01/21 09:03:09;;;;;;;33.20;3.20;;;;;;;6.99;77.11;103478.66;5092348;28;20028;-43
2022/01/21 09:05:34;;;;;;;47.10;4.35;;;;;;;6.92;77.08;103476.44;5092830;28;20028;-43
2022/01/21 09:08:00;;;;;;;26.63;2.63;;;;;;;6.84;77.38;103481.41;5090417;28;20059;-41
2022/01/21 09:10:25;;;;;;;23.40;2.30;;;;;;;6.76;77.64;103472.00;5092763;28;20024;-42
2022/01/21 09:12:50;;;;;;;20.13;2.45;;;;;;;6.62;79.11;103482.69;5091903;28;20067;-43
2022/01/21 09:15:23;;;;;;;33.45;2.58;;;;;;;6.56;79.44;103480.41;5092793;28;20240;-42
2022/01/21 09:17:48;;;;;;;29.70;2.97;;;;;;;6.48;80.29;103474.63;5087273;28;20032;-42
2022/01/21 09:20:13;;;;;;;29.70;1.92;;;;;;;6.46;80.68;103474.72;5091238;28;20497;-42
2022/01/21 09:22:39;;;;;;;23.75;2.35;;;;;;;6.49;80.74;103473.69;5090771;28;20031;-41
2022/01/21 09:25:04;;;;;;;21.15;1.83;;;;;;;6.48;80.69;103474.63;5091942;28;20032;-41
2022/01/21 09:27:30;;;;;;;31.77;1.80;;;;;;;6.53;80.81;103476.09;5092369;28;20020;-41
2022/01/21 09:29:55;;;;;;;14.70;1.88;;;;;;;6.43;81.49;103463.34;5092499;28;20024;-42
2022/01/21 09:32:20;;;;;;;29.42;2.65;;;;;;;6.41;81.51;103459.91;5091609;28;20023;-41
2022/01/21 09:34:46;;;;;;;20.75;2.08;;;;;;;6.41;81.82;103465.25;5092008;28;20499;-41
2022/01/21 09:37:12;;;;;;;24.42;2.75;;;;;;;6.38;82.65;103466.28;5092352;28;20040;-41
2022/01/21 09:39:38;;;;;;;20.15;2.42;;;;;;;6.47;82.52;103462.19;5089460;28;20111;-41
2022/01/21 09:42:06;;;;;;;26.42;2.15;;;;;;;6.49;82.74;103461.16;5092641;28;20020;-42
2022/01/21 09:44:32;;;;;;;18.00;1.80;;;;;;;6.58;82.75;103465.97;5092290;28;20048;-42
2022/01/21 09:47:00;;;;;;;19.65;1.83;;;;;;;6.63;82.94;103481.72;5092275;28;20059;-41
2022/01/21 09:49:26;;;;;;;26.73;1.95;;;;;;;6.69;82.75;103476.03;5084600;28;20066;-42
2022/01/21 09:52:00;;;;;;;30.00;2.10;;;;;;;6.73;82.77;103476.69;5091451;28;20360;-43
2022/01/21 09:54:35;;;;;;;23.02;1.80;;;;;;;6.76;82.17;103477.38;5091565;28;20464;-42
2022/01/21 09:57:02;;;;;;;24.95;2.13;;;;;;;6.77;82.50;103479.09;5079511;28;20047;-42
2022/01/21 09:59:29;;;;;;;24.52;2.33;;;;;;;6.81;82.66;103480.63;5081842;28;20043;-41
2022/01/21 10:01:57;;;;;;;18.80;2.20;;;;;;;6.93;82.07;103486.22;5081277;28;20151;-42
2022/01/21 10:04:30;;;;;;;26.35;1.60;;;;;;;6.98;81.61;103487.66;5084043;28;20036;-41
2022/01/21 10:06:56;;;;;;;35.28;2.75;;;;;;;6.98;81.01;103486.81;5085953;28;20115;-43
2022/01/21 10:09:24;;;;;;;40.53;3.88;;;;;;;6.87;81.40;103492.78;5088682;28;20115;-44
2022/01/21 10:11:51;;;;;;;37.72;4.13;;;;;;;6.85;82.21;103478.66;5091475;28;20061;-41
2022/01/21 10:14:21;;;;;;;34.80;4.63;;;;;;;7.11;81.76;103481.53;5091179;28;20028;-41
2022/01/21 10:16:48;;;;;;;28.08;2.53;;;;;;;7.64;80.56;103488.91;5082160;28;20470;-45
2022/01/21 10:19:24;;;;;;;40.38;3.13;;;;;;;8.35;79.50;103497.72;5090844;28;20028;-42
2022/01/21 10:22:04;;;;;;;34.55;2.90;;;;;;;8.95;74.94;103497.25;5090588;28;20043;-41
2022/01/21 10:24:32;;;;;;;26.92;1.98;;;;;;;8.67;74.75;103509.00;5090670;28;20043;-42
2022/01/21 10:26:58;;;;;;;29.60;2.28;;;;;;;8.46;74.50;103510.44;5091134;28;20031;-42
2022/01/21 10:29:34;;;;;;;31.65;3.17;;;;;;;8.18;75.98;103498.81;5091504;28;20024;-42
2022/01/21 10:32:01;;;;;;;26.70;2.33;;;;;;;7.91;76.82;103505.03;5084446;28;20116;-42
2022/01/21 10:34:44;;;;;;;21.50;1.80;;;;;;;7.77;77.74;103504.22;5079246;28;20052;-42
2022/01/21 10:37:30;;;;;;;26.35;2.33;;;;;;;7.72;77.59;103499.13;5091433;28;20043;-43
2022/01/21 10:40:08;;;;;;;34.60;2.88;;;;;;;7.63;77.26;103494.34;5086051;28;20046;-43
2022/01/21 10:42:34;;;;;;;29.35;1.90;;;;;;;7.59;77.06;103493.69;5085462;28;20119;-43
2022/01/21 10:45:01;;;;;;;24.63;1.80;;;;;;;7.56;77.33;103493.91;5091343;28;20103;-42
2022/01/21 10:47:32;;;;;;;30.48;1.92;;;;;;;7.46;77.10;103488.25;5091214;28;20028;-42
2022/01/21 10:50:16;;;;;;;30.02;2.50;;;;;;;7.31;77.43;103488.34;5091329;28;20365;-43
2022/01/21 10:52:51;;;;;;;31.88;2.50;;;;;;;7.37;77.48;103490.63;5091544;28;20035;-44
2022/01/21 10:55:26;;;;;;;29.60;2.50;;;;;;;7.52;77.78;103487.00;5082608;28;20534;-42
2022/01/21 10:58:09;;;;;;;25.25;2.33;;;;;;;7.64;77.70;103491.59;5092363;28;20363;-42
2022/01/21 11:00:47;;;;;;;26.27;2.92;;;;;;;7.75;77.22;103482.00;5091618;28;20028;-43
2022/01/21 11:03:14;;;;;;;36.00;3.55;;;;;;;7.93;76.99;103475.44;5082824;28;20540;-42
2022/01/21 11:05:44;;;;;;;35.43;2.50;;;;;;;8.06;76.76;103484.41;5088258;28;20111;-42
2022/01/21 11:08:11;;;;;;;35.28;2.63;;;;;;;8.12;76.02;103478.63;5090464;28;20028;-44
2022/01/21 11:10:42;;;;;;;32.30;2.42;;;;;;;8.21;75.94;103478.97;5087069;28;20403;-43
2022/01/21 11:13:15;;;;;;;22.00;2.50;;;;;;;8.27;76.21;103473.22;5091317;28;20084;-43
2022/01/21 11:15:42;;;;;;;47.22;2.40;;;;;;;8.22;76.46;103465.47;5091910;28;20031;-42
2022/01/21 11:18:09;;;;;;;39.03;3.67;;;;;;;8.27;76.09;103467.88;5090957;28;20367;-43
2022/01/21 11:20:38;;;;;;;27.08;2.45;;;;;;;8.46;75.32;103471.06;5087482;28;20119;-43
2022/01/21 11:23:05;;;;;;;40.15;3.72;;;;;;;8.36;76.06;103467.22;5089297;28;20084;-43
2022/01/21 11:25:56;;;;;;;47.25;2.92;;;;;;;8.07;76.83;103472.72;5087222;28;20479;-43
2022/01/21 11:28:23;;;;;;;31.60;3.63;;;;;;;7.93;77.19;103482.63;5086559;28;20067;-44
2022/01/21 11:30:51;;;;;;;36.63;3.95;;;;;;;7.67;77.80;103485.16;5091104;28;20124;-43
2022/01/21 11:33:16;;;;;;;54.67;4.50;;;;;;;7.55;78.96;103492.16;5089693;28;20478;-44
2022/01/21 11:35:41;;;;;;;35.25;3.35;;;;;;;7.51;79.18;103490.66;5090690;28;20036;-44
2022/01/21 11:38:09;;;;;;;33.35;4.47;;;;;;;7.47;79.00;103484.59;5089252;28;20113;-43
2022/01/21 11:40:36;;;;;;;33.83;3.58;;;;;;;7.45;79.15;103482.97;5089977;28;20028;-43
2022/01/21 11:43:02;;;;;;;53.55;4.22;;;;;;;7.53;78.40;103488.72;5074274;28;20032;-43
2022/01/21 11:50:40;;;;;;;39.53;3.63;;;;;;;7.66;78.55;103478.94;5083965;28;20047;-43
2022/01/21 11:53:06;;;;;;;42.00;3.85;;;;;;;7.75;79.51;103460.56;5084115;28;20550;-44
2022/01/21 11:55:40;;;;;;;34.83;3.53;;;;;;;7.83;78.41;103459.09;5082882;28;20036;-44
2022/01/21 11:58:17;;;;;;;37.83;3.95;;;;;;;7.82;77.09;103453.81;5091604;28;20064;-43
2022/01/21 12:00:44;;;;;;;39.97;3.88;;;;;;;7.85;77.00;103459.84;5088720;28;20031;-43
2022/01/21 12:03:09;;;;;;;32.33;2.70;;;;;;;7.81;76.06;103460.16;5091369;28;20483;-44
2022/01/21 12:05:35;;;;;;;45.38;3.83;;;;;;;7.72;76.41;103466.13;5085414;28;20027;-43
2022/01/21 12:08:04;;;;;;;52.80;4.30;;;;;;;7.68;75.87;103460.94;5091264;28;20032;-43
2022/01/21 12:10:34;;;;;;;39.88;3.10;;;;;;;7.59;76.37;103460.69;5090624;28;20028;-44
2022/01/21 12:13:08;;;;;;;48.10;3.90;;;;;;;7.51;77.09;103452.28;5091183;28;20110;-43
2022/01/21 12:18:39;;;;;;;36.85;3.60;;;;;;;7.45;78.14;103449.03;5090819;28;20068;-42
2022/01/21 12:21:02;;;;;;;46.15;3.70;;;;;;;7.50;78.22;103453.22;5089364;28;20040;-43
2022/01/21 12:23:28;;;;;;;30.98;2.60;;;;;;;7.47;77.48;103446.22;5090826;28;20039;-43
2022/01/21 12:26:19;;;;;;;45.67;3.65;;;;;;;7.42;77.92;103448.34;5076342;28;20031;-43